Time;durP1;ratioP1;P1;durP2;ratioP2;P2;SDS_P1;SDS_P2;PMS_P1;PMS_P2;Temp;Humidity;BMP_temperature;BMP_pressure;BME280_temperature;BME280_humidity;BME280_pressure;Samples;Min_cycle;Max_cycle;Signal;HPM_P1;HPM_P2
2022/09/24 00:00:36;;;;;;;;;12.25;11.75;;;;;;;;5081267;27;50955;-55
2022/09/24 00:03:02;;;;;;;;;12.00;10.50;;;;;;;;5079837;27;52072;-54
2022/09/24 00:05:27;;;;;;;;;16.50;15.00;;;;;;;;5084084;27;51166;-54
2022/09/24 00:07:52;;;;;;;;;12.00;12.00;;;;;;;;5073830;27;51175;-55
2022/09/24 00:10:17;;;;;;;;;15.00;13.75;;;;;;;;5075587;27;51658;-54
2022/09/24 00:12:42;;;;;;;;;13.75;13.50;;;;;;;;5082209;27;51987;-55
2022/09/24 00:15:08;;;;;;;;;14.25;13.75;;;;;;;;5080058;27;50889;-56
2022/09/24 00:17:33;;;;;;;;;12.00;12.00;;;;;;;;5076230;27;51829;-54
2022/09/24 00:19:58;;;;;;;;;14.00;14.00;;;;;;;;5092370;27;51176;-56
2022/09/24 00:22:23;;;;;;;;;13.50;12.50;;;;;;;;5095003;27;51106;-53
2022/09/24 00:27:33;;;;;;;;;15.50;13.50;;;;;;;;5074874;27;51140;-55
2022/09/24 00:29:58;;;;;;;;;14.50;13.00;;;;;;;;5077040;27;50904;-56
2022/09/24 00:32:23;;;;;;;;;14.00;13.75;;;;;;;;5092408;27;51344;-55
2022/09/24 00:34:50;;;;;;;;;13.00;12.50;;;;;;;;5074886;27;51083;-55
2022/09/24 00:37:18;;;;;;;;;14.75;14.00;;;;;;;;5078398;27;51140;-56
2022/09/24 00:39:44;;;;;;;;;12.75;12.00;;;;;;;;5074807;27;51183;-56
2022/09/24 00:42:10;;;;;;;;;11.25;11.25;;;;;;;;5084981;27;52304;-55
2022/09/24 00:44:47;;;;;;;;;13.50;13.00;;;;;;;;5074354;27;51046;-56
2022/09/24 00:47:26;;;;;;;;;12.00;10.75;;;;;;;;5075622;27;52653;-55
2022/09/24 00:49:54;;;;;;;;;12.50;11.25;;;;;;;;5074325;27;50949;-54
2022/09/24 00:52:19;;;;;;;;;14.75;14.00;;;;;;;;5082108;27;52063;-55
2022/09/24 00:54:45;;;;;;;;;12.75;12.00;;;;;;;;5074721;27;51010;-56
2022/09/24 00:57:10;;;;;;;;;13.50;13.00;;;;;;;;5075877;27;50983;-55
2022/09/24 00:59:36;;;;;;;;;15.50;15.00;;;;;;;;5084094;27;51361;-56
2022/09/24 01:02:03;;;;;;;;;25.75;25.75;;;;;;;;5078573;27;51884;-55
2022/09/24 01:04:28;;;;;;;;;45.00;36.50;;;;;;;;5074564;28;51089;-55
2022/09/24 01:06:55;;;;;;;;;36.25;33.25;;;;;;;;5073398;27;51434;-55
2022/09/24 01:09:21;;;;;;;;;25.75;22.50;;;;;;;;5074227;27;51078;-55
2022/09/24 01:11:58;;;;;;;;;24.50;23.00;;;;;;;;5080716;27;51294;-54
2022/09/24 01:14:32;;;;;;;;;22.25;20.50;;;;;;;;5089233;27;51130;-54
2022/09/24 01:17:13;;;;;;;;;20.00;19.25;;;;;;;;5083733;27;50973;-54
2022/09/24 01:19:38;;;;;;;;;14.75;14.00;;;;;;;;5072730;27;51155;-54
2022/09/24 01:22:11;;;;;;;;;12.75;12.25;;;;;;;;5091204;27;51939;-56
2022/09/24 01:24:48;;;;;;;;;12.00;11.75;;;;;;;;5093339;27;51066;-55
2022/09/24 01:27:22;;;;;;;;;15.00;14.75;;;;;;;;5078666;27;51037;-56
2022/09/24 01:29:52;;;;;;;;;18.00;16.25;;;;;;;;5073387;27;50919;-56
2022/09/24 01:32:39;;;;;;;;;13.50;11.75;;;;;;;;5073157;27;51147;-56
2022/09/24 01:35:08;;;;;;;;;15.00;14.00;;;;;;;;5075681;27;51233;-54
2022/09/24 01:37:36;;;;;;;;;14.00;13.00;;;;;;;;5073630;27;51105;-53
2022/09/24 01:40:03;;;;;;;;;14.50;14.50;;;;;;;;5077929;27;51305;-55
2022/09/24 01:42:29;;;;;;;;;15.25;13.75;;;;;;;;5094205;27;52823;-54
2022/09/24 01:44:56;;;;;;;;;14.25;13.00;;;;;;;;5087105;27;50914;-55
2022/09/24 01:47:29;;;;;;;;;14.00;14.00;;;;;;;;5072772;27;51059;-56
2022/09/24 01:49:54;;;;;;;;;14.00;14.00;;;;;;;;5081743;27;51352;-54
2022/09/24 01:52:24;;;;;;;;;13.75;13.00;;;;;;;;5075858;27;52714;-54
2022/09/24 01:54:51;;;;;;;;;14.00;13.00;;;;;;;;5093519;27;51139;-54
2022/09/24 01:57:24;;;;;;;;;15.25;14.50;;;;;;;;5085915;27;51161;-53
2022/09/24 01:59:54;;;;;;;;;19.50;18.75;;;;;;;;5073559;27;51235;-56
2022/09/24 02:02:39;;;;;;;;;17.25;15.00;;;;;;;;5073807;27;51846;-55
2022/09/24 02:05:25;;;;;;;;;14.25;14.00;;;;;;;;5075339;27;51388;-55
2022/09/24 02:08:09;;;;;;;;;13.75;13.00;;;;;;;;5072730;27;51065;-54
2022/09/24 02:10:45;;;;;;;;;14.00;13.75;;;;;;;;5072404;27;51354;-55
2022/09/24 02:13:12;;;;;;;;;14.50;13.75;;;;;;;;5077811;27;52307;-56
2022/09/24 02:15:39;;;;;;;;;16.25;14.00;;;;;;;;5092882;27;51063;-54
2022/09/24 02:18:06;;;;;;;;;10.00;10.00;;;;;;;;5077750;27;51103;-55
2022/09/24 02:20:33;;;;;;;;;12.75;12.75;;;;;;;;5084365;27;50997;-55
2022/09/24 02:22:59;;;;;;;;;13.25;13.25;;;;;;;;5073001;27;50906;-54
2022/09/24 02:25:28;;;;;;;;;16.50;15.00;;;;;;;;5085527;27;51152;-55
2022/09/24 02:27:53;;;;;;;;;15.50;14.50;;;;;;;;5089062;27;51213;-55
2022/09/24 02:30:19;;;;;;;;;15.50;15.25;;;;;;;;5087977;27;51101;-55
2022/09/24 02:32:44;;;;;;;;;13.00;13.00;;;;;;;;5072796;27;51233;-55
2022/09/24 02:35:10;;;;;;;;;15.50;14.50;;;;;;;;5090086;27;51127;-53
2022/09/24 02:37:37;;;;;;;;;14.00;14.00;;;;;;;;5089303;27;51167;-55
2022/09/24 02:40:07;;;;;;;;;14.00;13.75;;;;;;;;5073386;27;51703;-54
2022/09/24 02:42:33;;;;;;;;;13.25;13.00;;;;;;;;5074092;27;51101;-55
2022/09/24 02:44:59;;;;;;;;;15.50;15.25;;;;;;;;5071377;28;51020;-55
2022/09/24 02:47:25;;;;;;;;;14.50;13.75;;;;;;;;5080714;27;51263;-55
2022/09/24 02:49:50;;;;;;;;;14.25;14.00;;;;;;;;5071587;27;51157;-55
2022/09/24 02:52:15;;;;;;;;;12.75;12.50;;;;;;;;5074155;27;52601;-54
2022/09/24 02:54:41;;;;;;;;;16.75;16.25;;;;;;;;5073098;27;51029;-56
2022/09/24 02:57:06;;;;;;;;;15.75;14.75;;;;;;;;5074706;27;51020;-55
2022/09/24 02:59:31;;;;;;;;;15.50;15.00;;;;;;;;5077066;27;51301;-55
2022/09/24 03:01:57;;;;;;;;;14.50;14.00;;;;;;;;5077371;27;52367;-55
2022/09/24 03:04:22;;;;;;;;;16.75;15.50;;;;;;;;5072144;27;51066;-54
2022/09/24 03:06:47;;;;;;;;;20.00;17.50;;;;;;;;5076343;27;50953;-55
2022/09/24 03:09:12;;;;;;;;;17.00;16.00;;;;;;;;5083784;27;51207;-55
2022/09/24 03:11:38;;;;;;;;;18.00;17.00;;;;;;;;5092703;27;52013;-54
2022/09/24 03:14:03;;;;;;;;;17.50;16.75;;;;;;;;5091805;27;51086;-55
2022/09/24 03:16:28;;;;;;;;;19.50;18.75;;;;;;;;5086898;27;50972;-55
2022/09/24 03:18:54;;;;;;;;;18.25;18.00;;;;;;;;5072224;27;51415;-56
2022/09/24 03:21:20;;;;;;;;;16.25;16.25;;;;;;;;5071841;27;52759;-56
2022/09/24 03:23:45;;;;;;;;;13.50;13.00;;;;;;;;5072433;27;50925;-55
2022/09/24 03:26:11;;;;;;;;;11.75;11.75;;;;;;;;5092805;27;51054;-54
2022/09/24 03:28:36;;;;;;;;;14.00;13.50;;;;;;;;5082336;27;51320;-55
2022/09/24 03:31:01;;;;;;;;;15.00;13.75;;;;;;;;5070713;27;52885;-55
2022/09/24 03:33:31;;;;;;;;;11.00;10.75;;;;;;;;5080091;27;51003;-54
2022/09/24 03:35:57;;;;;;;;;15.75;13.50;;;;;;;;5073089;27;51135;-55
2022/09/24 03:38:22;;;;;;;;;11.25;11.25;;;;;;;;5083360;27;51352;-55
2022/09/24 03:40:47;;;;;;;;;12.25;11.00;;;;;;;;5071260;27;51218;-55
2022/09/24 03:43:13;;;;;;;;;16.00;13.75;;;;;;;;5072051;27;51211;-55
2022/09/24 03:45:38;;;;;;;;;13.75;13.00;;;;;;;;5073034;27;51080;-54
2022/09/24 03:48:05;;;;;;;;;11.25;11.00;;;;;;;;5074572;27;51158;-55
2022/09/24 03:50:30;;;;;;;;;14.75;13.00;;;;;;;;5071635;28;51881;-55
2022/09/24 03:52:56;;;;;;;;;14.75;13.50;;;;;;;;5076952;27;51255;-55
2022/09/24 03:55:21;;;;;;;;;14.25;13.25;;;;;;;;5074293;27;50938;-55
2022/09/24 03:57:46;;;;;;;;;12.00;12.00;;;;;;;;5076647;27;51318;-56
2022/09/24 04:00:11;;;;;;;;;13.50;13.00;;;;;;;;5088938;27;51065;-54
2022/09/24 04:02:37;;;;;;;;;12.00;12.00;;;;;;;;5085283;27;51137;-55
2022/09/24 04:05:02;;;;;;;;;10.75;10.75;;;;;;;;5096022;27;51010;-54
2022/09/24 04:07:27;;;;;;;;;12.00;11.25;;;;;;;;5074828;27;51206;-54
2022/09/24 04:09:53;;;;;;;;;16.00;14.25;;;;;;;;5084079;27;51131;-55
2022/09/24 04:12:18;;;;;;;;;12.75;11.75;;;;;;;;5081265;27;51084;-56
2022/09/24 04:14:44;;;;;;;;;8.00;8.00;;;;;;;;5096200;27;51082;-55
2022/09/24 04:17:09;;;;;;;;;12.00;11.75;;;;;;;;5087912;27;51205;-55
2022/09/24 04:19:34;;;;;;;;;12.75;12.00;;;;;;;;5078249;27;52343;-55
2022/09/24 04:21:59;;;;;;;;;15.00;13.00;;;;;;;;5083123;27;51077;-56
2022/09/24 04:24:25;;;;;;;;;12.75;12.25;;;;;;;;5081187;27;50969;-56
2022/09/24 04:26:50;;;;;;;;;12.00;11.00;;;;;;;;5075710;27;51144;-56
2022/09/24 04:29:15;;;;;;;;;12.00;11.25;;;;;;;;5076639;27;51253;-55
2022/09/24 04:31:40;;;;;;;;;13.50;11.75;;;;;;;;5095252;27;50955;-56
2022/09/24 04:34:06;;;;;;;;;13.00;12.00;;;;;;;;5095574;27;51171;-55
2022/09/24 04:36:31;;;;;;;;;13.25;12.00;;;;;;;;5080789;27;51332;-56
2022/09/24 04:38:56;;;;;;;;;13.75;13.00;;;;;;;;5086646;27;52133;-55
2022/09/24 04:41:21;;;;;;;;;11.25;9.25;;;;;;;;5079920;27;51123;-55
2022/09/24 04:43:47;;;;;;;;;13.25;11.25;;;;;;;;5095352;27;51673;-55
2022/09/24 04:46:12;;;;;;;;;11.25;11.00;;;;;;;;5095449;27;51384;-55
2022/09/24 04:48:37;;;;;;;;;13.75;13.00;;;;;;;;5077393;27;51289;-56
2022/09/24 04:51:06;;;;;;;;;11.50;11.25;;;;;;;;5080585;27;51340;-55
2022/09/24 04:53:32;;;;;;;;;12.00;11.00;;;;;;;;5082049;27;51037;-55
2022/09/24 04:55:58;;;;;;;;;11.25;10.00;;;;;;;;5074552;27;51294;-55
2022/09/24 04:58:24;;;;;;;;;11.75;11.25;;;;;;;;5073756;27;52832;-53
2022/09/24 05:00:50;;;;;;;;;12.00;12.00;;;;;;;;5078726;27;51370;-56
2022/09/24 05:03:15;;;;;;;;;15.00;13.25;;;;;;;;5093046;27;50958;-55
2022/09/24 05:05:40;;;;;;;;;15.50;13.00;;;;;;;;5090423;27;51477;-53
2022/09/24 05:08:06;;;;;;;;;13.25;13.25;;;;;;;;5075349;27;52326;-54
2022/09/24 05:10:32;;;;;;;;;15.00;15.00;;;;;;;;5080209;27;51041;-54
2022/09/24 05:12:57;;;;;;;;;12.75;11.50;;;;;;;;5091126;27;51234;-54
2022/09/24 05:15:22;;;;;;;;;11.50;11.50;;;;;;;;5093373;27;51171;-55
2022/09/24 05:17:47;;;;;;;;;14.00;13.50;;;;;;;;5076605;27;52800;-55
2022/09/24 05:20:14;;;;;;;;;12.00;12.00;;;;;;;;5080156;27;51247;-55
2022/09/24 05:22:39;;;;;;;;;14.75;12.75;;;;;;;;5092565;27;51161;-53
2022/09/24 05:25:05;;;;;;;;;12.50;12.25;;;;;;;;5091165;27;51141;-55
2022/09/24 05:27:30;;;;;;;;;11.50;11.25;;;;;;;;5075596;27;52260;-54
2022/09/24 05:29:55;;;;;;;;;14.50;14.00;;;;;;;;5072594;27;50901;-56
2022/09/24 05:32:20;;;;;;;;;14.25;13.00;;;;;;;;5075938;27;51142;-54
2022/09/24 05:34:46;;;;;;;;;13.50;12.00;;;;;;;;5094945;27;51125;-54
2022/09/24 05:37:12;;;;;;;;;9.50;9.00;;;;;;;;5090265;27;52284;-55
2022/09/24 05:39:37;;;;;;;;;12.00;12.00;;;;;;;;5089084;27;51369;-55
2022/09/24 05:42:03;;;;;;;;;14.25;13.50;;;;;;;;5076597;27;51076;-55
2022/09/24 05:44:29;;;;;;;;;13.25;13.25;;;;;;;;5081158;27;50941;-55
2022/09/24 05:46:54;;;;;;;;;12.75;11.25;;;;;;;;5094049;27;53126;-55
2022/09/24 05:49:19;;;;;;;;;11.50;11.50;;;;;;;;5086448;27;51179;-54
2022/09/24 05:51:46;;;;;;;;;11.50;10.75;;;;;;;;5080143;27;51111;-55
2022/09/24 05:54:11;;;;;;;;;12.50;12.50;;;;;;;;5092084;27;50931;-54
2022/09/24 05:56:37;;;;;;;;;14.00;12.00;;;;;;;;5077055;27;51108;-53
2022/09/24 05:59:02;;;;;;;;;14.25;14.00;;;;;;;;5073459;27;51101;-54
2022/09/24 06:01:30;;;;;;;;;11.00;11.00;;;;;;;;5080277;27;51063;-54
2022/09/24 06:03:56;;;;;;;;;14.75;14.75;;;;;;;;5091606;27;51137;-55
2022/09/24 06:06:21;;;;;;;;;15.25;15.00;;;;;;;;5072330;27;51290;-55
2022/09/24 06:08:46;;;;;;;;;13.50;13.00;;;;;;;;5077007;27;51156;-54
2022/09/24 06:11:12;;;;;;;;;13.50;12.75;;;;;;;;5085824;27;51450;-56
2022/09/24 06:13:38;;;;;;;;;15.00;14.75;;;;;;;;5075679;27;50959;-55
2022/09/24 06:16:04;;;;;;;;;16.50;16.50;;;;;;;;5073834;27;52782;-54
2022/09/24 06:18:32;;;;;;;;;14.75;13.75;;;;;;;;5072284;27;51105;-56
2022/09/24 06:21:05;;;;;;;;;14.50;13.75;;;;;;;;5072047;27;51399;-55
2022/09/24 06:23:30;;;;;;;;;15.50;15.00;;;;;;;;5073005;27;51346;-55
2022/09/24 06:25:56;;;;;;;;;16.00;15.50;;;;;;;;5076648;27;52086;-61
2022/09/24 06:28:21;;;;;;;;;21.50;20.25;;;;;;;;5073989;27;51189;-55
2022/09/24 06:30:46;;;;;;;;;15.25;14.25;;;;;;;;5077327;27;50956;-55
2022/09/24 06:33:12;;;;;;;;;15.00;14.25;;;;;;;;5091980;27;51335;-57
2022/09/24 06:35:39;;;;;;;;;22.25;21.75;;;;;;;;5079975;27;51872;-56
2022/09/24 06:38:05;;;;;;;;;17.00;16.25;;;;;;;;5089799;27;50976;-55
2022/09/24 06:40:30;;;;;;;;;14.00;13.50;;;;;;;;5086009;27;50977;-56
2022/09/24 06:42:56;;;;;;;;;15.50;14.75;;;;;;;;5080338;27;51440;-56
2022/09/24 06:45:22;;;;;;;;;13.75;12.00;;;;;;;;5071584;27;51857;-55
2022/09/24 06:47:51;;;;;;;;;16.50;15.00;;;;;;;;5075569;27;51192;-55
2022/09/24 06:50:16;;;;;;;;;17.50;15.50;;;;;;;;5072600;27;51375;-56
2022/09/24 06:52:41;;;;;;;;;12.00;11.50;;;;;;;;5078335;27;51162;-55
2022/09/24 06:55:06;;;;;;;;;14.25;14.00;;;;;;;;5069946;27;52070;-53
2022/09/24 06:57:31;;;;;;;;;10.75;10.75;;;;;;;;5071381;27;50911;-55
2022/09/24 06:59:57;;;;;;;;;12.25;12.25;;;;;;;;5072927;27;50963;-55
2022/09/24 07:02:22;;;;;;;;;14.25;14.25;;;;;;;;5076508;27;51131;-55
2022/09/24 07:04:47;;;;;;;;;14.25;14.25;;;;;;;;5069915;27;52096;-56
2022/09/24 07:07:28;;;;;;;;;14.00;13.00;;;;;;;;5069290;27;51640;-56
2022/09/24 07:09:53;;;;;;;;;10.50;10.50;;;;;;;;5078476;27;51100;-57
2022/09/24 07:12:18;;;;;;;;;12.50;12.00;;;;;;;;5069186;27;51012;-56
2022/09/24 07:14:43;;;;;;;;;12.00;12.00;;;;;;;;5075220;27;51131;-54
2022/09/24 07:17:08;;;;;;;;;11.75;11.75;;;;;;;;5087199;27;50993;-56
2022/09/24 07:19:34;;;;;;;;;13.00;12.50;;;;;;;;5079136;27;51056;-55
2022/09/24 07:21:59;;;;;;;;;10.00;9.50;;;;;;;;5086661;27;52023;-54
2022/09/24 07:24:24;;;;;;;;;10.25;9.00;;;;;;;;5082404;27;51764;-54
2022/09/24 07:26:49;;;;;;;;;11.00;10.00;;;;;;;;5076978;27;51428;-56
2022/09/24 07:29:15;;;;;;;;;10.00;9.50;;;;;;;;5075027;27;51169;-55
2022/09/24 07:31:40;;;;;;;;;10.50;9.75;;;;;;;;5081608;27;51088;-54
2022/09/24 07:34:06;;;;;;;;;7.75;7.75;;;;;;;;5087011;27;51262;-55
2022/09/24 07:36:31;;;;;;;;;13.75;13.50;;;;;;;;5096252;27;50971;-55
2022/09/24 07:38:57;;;;;;;;;10.00;9.00;;;;;;;;5096445;27;51077;-55
2022/09/24 07:41:22;;;;;;;;;11.00;11.00;;;;;;;;5086344;27;51278;-56
2022/09/24 07:43:47;;;;;;;;;12.00;11.75;;;;;;;;5074572;27;53274;-55
2022/09/24 07:46:13;;;;;;;;;11.25;9.75;;;;;;;;5075870;27;51000;-54
2022/09/24 07:48:38;;;;;;;;;10.75;9.50;;;;;;;;5075978;27;51066;-55
2022/09/24 07:51:05;;;;;;;;;13.50;12.75;;;;;;;;5084831;27;50975;-55
2022/09/24 07:53:30;;;;;;;;;12.75;12.00;;;;;;;;5075971;27;52875;-55
2022/09/24 07:55:57;;;;;;;;;13.25;13.25;;;;;;;;5075438;27;51190;-55
2022/09/24 07:58:22;;;;;;;;;13.75;12.00;;;;;;;;5075790;27;50995;-56
2022/09/24 08:00:48;;;;;;;;;14.00;13.75;;;;;;;;5079905;27;51101;-56
2022/09/24 08:03:13;;;;;;;;;11.00;11.00;;;;;;;;5077154;27;51981;-56
2022/09/24 08:05:44;;;;;;;;;13.25;12.50;;;;;;;;5074926;28;51104;-56
2022/09/24 08:08:09;;;;;;;;;10.50;10.50;;;;;;;;5075414;27;51032;-56
2022/09/24 08:10:34;;;;;;;;;12.75;11.50;;;;;;;;5075488;27;50773;-56
2022/09/24 08:13:03;;;;;;;;;10.00;10.00;;;;;;;;5074324;27;50911;-55
2022/09/24 08:15:28;;;;;;;;;13.25;13.00;;;;;;;;5076130;27;50892;-54
2022/09/24 08:17:53;;;;;;;;;15.00;13.75;;;;;;;;5082094;27;51036;-56
2022/09/24 08:20:20;;;;;;;;;12.00;12.00;;;;;;;;5074813;27;51285;-57
2022/09/24 08:22:45;;;;;;;;;8.50;8.50;;;;;;;;5074301;27;51087;-55
2022/09/24 08:25:10;;;;;;;;;15.00;14.50;;;;;;;;5074643;27;51131;-54
2022/09/24 08:27:36;;;;;;;;;9.75;9.75;;;;;;;;5074936;28;50937;-54
2022/09/24 08:30:02;;;;;;;;;13.50;12.75;;;;;;;;5075049;27;50995;-54
2022/09/24 08:32:30;;;;;;;;;9.25;9.00;;;;;;;;5074459;28;51952;-56
2022/09/24 08:34:55;;;;;;;;;10.75;9.25;;;;;;;;5083627;27;52872;-57
2022/09/24 08:37:21;;;;;;;;;8.50;8.50;;;;;;;;5073175;28;51130;-55
2022/09/24 08:39:46;;;;;;;;;10.75;10.50;;;;;;;;5075002;27;50901;-55
2022/09/24 08:42:24;;;;;;;;;14.25;12.50;;;;;;;;5073612;27;52113;-55
2022/09/24 08:47:44;;;;;;;;;12.00;10.75;;;;;;;;5074926;28;51129;-55
2022/09/24 08:50:19;;;;;;;;;12.00;12.00;;;;;;;;5074382;27;51290;-56
2022/09/24 08:52:54;;;;;;;;;8.75;8.00;;;;;;;;5076074;27;51088;-55
2022/09/24 08:55:26;;;;;;;;;10.00;10.00;;;;;;;;5074394;27;51138;-55
2022/09/24 08:57:54;;;;;;;;;13.50;13.00;;;;;;;;5074387;27;50916;-55
2022/09/24 09:00:20;;;;;;;;;10.50;10.00;;;;;;;;5074851;27;51383;-55
2022/09/24 09:02:55;;;;;;;;;11.75;11.00;;;;;;;;5073935;27;51897;-54
2022/09/24 09:05:39;;;;;;;;;15.75;15.25;;;;;;;;5073771;28;51287;-56
2022/09/24 09:08:11;;;;;;;;;10.50;10.50;;;;;;;;5086143;27;51062;-56
2022/09/24 09:10:38;;;;;;;;;11.50;11.25;;;;;;;;5073760;27;50932;-56
2022/09/24 09:13:23;;;;;;;;;10.75;10.25;;;;;;;;5080647;27;51271;-56
2022/09/24 09:15:52;;;;;;;;;14.00;11.67;;;;;;;;5091545;27;51133;-54
2022/09/24 09:18:24;;;;;;;;;14.00;13.33;;;;;;;;5073640;27;51112;-56
2022/09/24 09:20:49;;;;;;;;;13.00;13.00;;;;;;;;5085982;27;51298;-56
2022/09/24 09:23:18;;;;;;;;;10.25;10.25;;;;;;;;5073635;27;52670;-55
2022/09/24 09:25:50;;;;;;;;;12.00;11.50;;;;;;;;5073841;27;51207;-55
2022/09/24 09:28:16;;;;;;;;;11.00;10.67;;;;;;;;5073291;27;50880;-55
2022/09/24 09:30:52;;;;;;;;;14.75;14.50;;;;;;;;5087175;27;51044;-55
2022/09/24 09:33:30;;;;;;;;;11.00;11.00;;;;;;;;5093340;27;51910;-55
2022/09/24 09:36:18;;;;;;;;;11.00;11.00;;;;;;;;5093751;27;50948;-54
2022/09/24 09:38:43;;;;;;;;;12.00;12.00;;;;;;;;5078995;27;50929;-56
2022/09/24 09:41:15;;;;;;;;;40.50;34.00;;;;;;;;5092922;27;51211;-54
2022/09/24 09:43:40;;;;;;;;;20.25;18.50;;;;;;;;5093746;27;51109;-56
2022/09/24 09:46:13;;;;;;;;;15.50;15.25;;;;;;;;5093435;27;50933;-56
2022/09/24 09:48:43;;;;;;;;;21.00;19.50;;;;;;;;5093345;27;50952;-54
2022/09/24 09:51:12;;;;;;;;;20.00;18.75;;;;;;;;5071787;27;51286;-54
2022/09/24 09:53:38;;;;;;;;;20.75;20.25;;;;;;;;5076360;27;51174;-54
2022/09/24 09:56:06;;;;;;;;;16.00;15.00;;;;;;;;5071226;28;51237;-54
2022/09/24 09:58:32;;;;;;;;;17.50;16.50;;;;;;;;5086296;27;51076;-54
2022/09/24 10:01:03;;;;;;;;;21.25;20.00;;;;;;;;5084416;27;50982;-55
2022/09/24 10:03:30;;;;;;;;;19.00;16.00;;;;;;;;5088512;27;53671;-54
2022/09/24 10:06:00;;;;;;;;;16.75;15.00;;;;;;;;5077380;27;51897;-55
2022/09/24 10:08:25;;;;;;;;;16.00;15.25;;;;;;;;5072337;27;51178;-54
2022/09/24 10:10:57;;;;;;;;;20.50;19.50;;;;;;;;5075064;27;51075;-55
2022/09/24 10:13:23;;;;;;;;;15.50;15.00;;;;;;;;5075501;27;52961;-54
2022/09/24 10:15:59;;;;;;;;;16.50;16.50;;;;;;;;5073956;27;51468;-55
2022/09/24 10:18:28;;;;;;;;;16.00;15.50;;;;;;;;5077128;27;51500;-56
2022/09/24 10:20:54;;;;;;;;;16.75;15.25;;;;;;;;5074430;27;51368;-55
2022/09/24 10:23:21;;;;;;;;;18.75;17.25;;;;;;;;5070673;28;52320;-57
2022/09/24 10:25:52;;;;;;;;;23.00;22.50;;;;;;;;5073532;27;51112;-56
2022/09/24 10:31:05;;;;;;;;;19.25;18.75;;;;;;;;5071215;28;50998;-56
2022/09/24 10:33:37;;;;;;;;;20.50;19.25;;;;;;;;5071623;27;52509;-56
2022/09/24 10:36:05;;;;;;;;;22.00;21.50;;;;;;;;5083070;27;51130;-56
2022/09/24 10:38:30;;;;;;;;;23.75;23.00;;;;;;;;5075980;27;50841;-56
2022/09/24 10:40:56;;;;;;;;;20.75;20.75;;;;;;;;5073578;27;51149;-56
2022/09/24 10:43:22;;;;;;;;;22.75;22.00;;;;;;;;5070904;27;50948;-55
2022/09/24 10:46:06;;;;;;;;;21.50;21.25;;;;;;;;5073195;27;51171;-55
2022/09/24 10:48:40;;;;;;;;;20.25;17.25;;;;;;;;5072598;27;50874;-55
2022/09/24 10:51:15;;;;;;;;;17.50;17.25;;;;;;;;5072466;27;50943;-52
2022/09/24 10:53:54;;;;;;;;;17.00;15.75;;;;;;;;5084177;27;51124;-56
2022/09/24 10:56:32;;;;;;;;;23.50;21.75;;;;;;;;5071866;27;51099;-55
2022/09/24 10:58:57;;;;;;;;;19.00;17.75;;;;;;;;5071553;27;50972;-54
2022/09/24 11:01:31;;;;;;;;;18.50;18.25;;;;;;;;5081468;27;51051;-53
2022/09/24 11:03:56;;;;;;;;;23.00;22.25;;;;;;;;5091317;27;51876;-55
2022/09/24 11:06:24;;;;;;;;;25.00;23.00;;;;;;;;5091591;27;51057;-54
2022/09/24 11:09:01;;;;;;;;;24.00;22.25;;;;;;;;5091815;27;50958;-55
2022/09/24 11:11:27;;;;;;;;;26.50;25.75;;;;;;;;5091192;27;51126;-55
2022/09/24 11:14:04;;;;;;;;;22.75;21.75;;;;;;;;5091737;27;52344;-55
2022/09/24 11:16:48;;;;;;;;;22.25;22.25;;;;;;;;5088981;27;51094;-55
2022/09/24 11:19:22;;;;;;;;;23.00;21.25;;;;;;;;5071721;27;51283;-54
2022/09/24 11:22:06;;;;;;;;;26.00;23.75;;;;;;;;5071112;27;51309;-55
2022/09/24 11:24:36;;;;;;;;;32.00;29.75;;;;;;;;5071409;28;51084;-56
2022/09/24 11:27:14;;;;;;;;;25.50;24.25;;;;;;;;5071658;27;51048;-57
2022/09/24 11:29:59;;;;;;;;;25.75;25.00;;;;;;;;5070613;27;51057;-55
2022/09/24 11:32:24;;;;;;;;;26.00;24.25;;;;;;;;5071323;27;51267;-54
2022/09/24 11:35:09;;;;;;;;;22.75;20.00;;;;;;;;5072389;27;51224;-55
2022/09/24 11:37:42;;;;;;;;;26.25;25.50;;;;;;;;5075569;27;51093;-54
2022/09/24 11:40:13;;;;;;;;;21.00;19.75;;;;;;;;5069096;27;51253;-54
2022/09/24 11:42:55;;;;;;;;;25.25;25.25;;;;;;;;5086192;27;51777;-54
2022/09/24 11:45:40;;;;;;;;;26.75;24.75;;;;;;;;5077157;27;52005;-55
2022/09/24 11:48:27;;;;;;;;;24.50;24.25;;;;;;;;5091245;27;50889;-55
2022/09/24 11:51:00;;;;;;;;;30.00;27.75;;;;;;;;5070340;27;51300;-55
2022/09/24 11:53:37;;;;;;;;;27.75;25.75;;;;;;;;5074204;27;51005;-58
2022/09/24 11:56:11;;;;;;;;;29.50;24.00;;;;;;;;5082496;27;52306;-57
2022/09/24 11:58:43;;;;;;;;;20.25;20.00;;;;;;;;5069594;27;50982;-56
2022/09/24 12:01:11;;;;;;;;;28.25;27.25;;;;;;;;5077221;27;51222;-55
2022/09/24 12:03:45;;;;;;;;;25.75;25.00;;;;;;;;5071688;27;51263;-57
2022/09/24 12:06:14;;;;;;;;;21.75;21.00;;;;;;;;5074026;27;51049;-54
2022/09/24 12:09:00;;;;;;;;;22.25;19.75;;;;;;;;5089215;27;51256;-56
2022/09/24 12:11:29;;;;;;;;;20.50;18.25;;;;;;;;5091109;27;50975;-55
2022/09/24 12:13:57;;;;;;;;;20.00;20.00;;;;;;;;5090904;27;50855;-54
2022/09/24 12:16:26;;;;;;;;;35.00;32.00;;;;;;;;5080207;27;51731;-54
2022/09/24 12:18:55;;;;;;;;;19.25;19.25;;;;;;;;5082110;27;51094;-54
2022/09/24 12:21:25;;;;;;;;;17.75;17.50;;;;;;;;5093804;27;50884;-55
2022/09/24 12:23:51;;;;;;;;;25.75;23.25;;;;;;;;5075079;27;50914;-55
2022/09/24 12:26:19;;;;;;;;;23.75;23.50;;;;;;;;5073199;27;51901;-56
2022/09/24 12:34:51;;;;;;;;;20.75;20.00;;;;;;;;5074299;27;51030;-58
2022/09/24 12:37:19;;;;;;;;;21.25;19.25;;;;;;;;5090168;27;51781;-56
2022/09/24 12:39:48;;;;;;;;;23.25;21.50;;;;;;;;5074227;27;50952;-55
2022/09/24 12:42:14;;;;;;;;;23.25;20.25;;;;;;;;5073790;27;50911;-55
2022/09/24 12:44:43;;;;;;;;;24.00;22.00;;;;;;;;5072708;28;51291;-54
2022/09/24 12:47:27;;;;;;;;;22.25;21.50;;;;;;;;5090667;27;52647;-57
2022/09/24 12:50:01;;;;;;;;;21.75;20.50;;;;;;;;5094224;27;51051;-55
2022/09/24 12:52:46;;;;;;;;;19.50;18.00;;;;;;;;5094006;27;51042;-55
2022/09/24 12:55:23;;;;;;;;;23.25;23.25;;;;;;;;5078355;27;51442;-56
2022/09/24 12:57:51;;;;;;;;;21.25;19.50;;;;;;;;5081966;27;52326;-55
2022/09/24 13:00:37;;;;;;;;;25.25;22.50;;;;;;;;5075650;27;51083;-57
2022/09/24 13:03:05;;;;;;;;;22.50;21.50;;;;;;;;5078171;27;50975;-55
2022/09/24 13:05:33;;;;;;;;;21.00;19.50;;;;;;;;5094391;27;51020;-55
2022/09/24 13:08:03;;;;;;;;;22.25;20.75;;;;;;;;5093026;27;51219;-55
2022/09/24 13:10:28;;;;;;;;;19.75;19.50;;;;;;;;5094104;27;51004;-56
2022/09/24 13:12:55;;;;;;;;;19.00;18.25;;;;;;;;5080451;27;51082;-57
2022/09/24 13:15:27;;;;;;;;;20.00;19.50;;;;;;;;5090574;27;51187;-54
2022/09/24 13:18:19;;;;;;;;;18.25;17.75;;;;;;;;5093857;27;51286;-54
2022/09/24 13:20:55;;;;;;;;;19.75;19.75;;;;;;;;5090274;27;51218;-55
2022/09/24 13:23:20;;;;;;;;;21.00;20.25;;;;;;;;5094131;27;51004;-56
2022/09/24 13:25:56;;;;;;;;;21.25;20.25;;;;;;;;5094201;27;51392;-55
2022/09/24 13:28:26;;;;;;;;;25.00;22.50;;;;;;;;5092140;27;52726;-62
2022/09/24 13:31:14;;;;;;;;;23.75;22.75;;;;;;;;5083492;27;51358;-57
2022/09/24 13:33:42;;;;;;;;;20.75;20.25;;;;;;;;5073472;27;51067;-55
2022/09/24 13:36:12;;;;;;;;;22.25;21.25;;;;;;;;5088348;27;51411;-56
2022/09/24 13:38:44;;;;;;;;;23.50;21.75;;;;;;;;5081827;27;51074;-56
2022/09/24 13:41:19;;;;;;;;;25.50;24.00;;;;;;;;5078126;27;51188;-54
2022/09/24 13:43:47;;;;;;;;;20.25;19.75;;;;;;;;5072761;27;51170;-56
2022/09/24 13:46:14;;;;;;;;;19.25;19.00;;;;;;;;5084924;27;51386;-53
2022/09/24 13:48:41;;;;;;;;;25.25;24.50;;;;;;;;5087455;27;51715;-55
2022/09/24 13:51:10;;;;;;;;;19.25;18.50;;;;;;;;5072447;27;51056;-55
2022/09/24 13:53:39;;;;;;;;;19.00;18.25;;;;;;;;5074242;27;51007;-54
2022/09/24 13:56:10;;;;;;;;;19.75;18.75;;;;;;;;5079103;27;51368;-54
2022/09/24 13:58:40;;;;;;;;;18.25;18.00;;;;;;;;5085821;27;51919;-55
2022/09/24 14:01:06;;;;;;;;;19.25;18.75;;;;;;;;5077681;27;51053;-54
2022/09/24 14:03:33;;;;;;;;;25.75;24.00;;;;;;;;5075406;27;52605;-56
2022/09/24 14:05:59;;;;;;;;;25.75;23.50;;;;;;;;5076698;27;51500;-54
2022/09/24 14:08:26;;;;;;;;;26.25;22.75;;;;;;;;5090431;27;53515;-54
2022/09/24 14:11:02;;;;;;;;;24.25;23.25;;;;;;;;5083845;27;51140;-52
2022/09/24 14:13:27;;;;;;;;;23.25;21.50;;;;;;;;5071562;27;51085;-54
2022/09/24 14:16:05;;;;;;;;;17.75;17.50;;;;;;;;5076827;27;50960;-51
2022/09/24 14:18:31;;;;;;;;;24.00;23.50;;;;;;;;5074627;27;52029;-53
2022/09/24 14:21:09;;;;;;;;;22.00;22.00;;;;;;;;5071872;27;51123;-53
2022/09/24 14:24:06;;;;;;;;;21.25;20.50;;;;;;;;5074590;27;51096;-51
2022/09/24 14:26:35;;;;;;;;;22.25;20.75;;;;;;;;5078724;27;51291;-54
2022/09/24 14:29:05;;;;;;;;;23.25;21.75;;;;;;;;5078763;27;52926;-51
2022/09/24 14:31:30;;;;;;;;;17.00;16.75;;;;;;;;5081257;27;51261;-52
2022/09/24 14:33:57;;;;;;;;;19.50;19.25;;;;;;;;5074836;27;51323;-52
2022/09/24 14:36:27;;;;;;;;;24.50;24.00;;;;;;;;5074895;27;51029;-50
2022/09/24 14:38:58;;;;;;;;;22.00;21.75;;;;;;;;5071189;27;51235;-49
2022/09/24 14:41:28;;;;;;;;;17.25;16.50;;;;;;;;5070424;27;52630;-51